Time,TemperatureF,DewpointF,PressureIn,WindDirection,WindDirectionDegrees,WindSpeedMPH,WindSpeedGustMPH,Humidity,HourlyPrecipIn,Conditions,Clouds,dailyrainin,SoftwareType,DateUTC
2013-01-03 00:01:00,48.0,16.0,30.01,SSW,205,0.0,5.0,27,0.00,,,0.00,,2013-01-03 08:01:00,
2013-01-03 00:11:00,48.0,16.0,30.01,SSW,205,0.0,5.0,27,0.00,,,0.00,,2013-01-03 08:11:00,
2013-01-03 00:22:00,47.0,18.0,30.01,SSW,205,0.0,3.0,31,0.00,,,0.00,,2013-01-03 08:22:00,
2013-01-03 00:32:00,47.0,18.0,30.01,SSW,205,0.0,3.0,31,0.00,,,0.00,,2013-01-03 08:32:00,
2013-01-03 00:43:00,47.0,18.0,30.01,SSW,205,0.0,3.0,31,0.00,,,0.00,,2013-01-03 08:43:00,
2013-01-03 00:53:00,45.0,18.0,30.01,SSW,205,2.0,2.0,33,0.00,,,0.00,,2013-01-03 08:53:00,
2013-01-03 01:02:00,45.0,18.0,30.01,SSW,205,2.0,2.0,33,0.00,,,0.00,,2013-01-03 09:02:00,
2013-01-03 01:12:00,45.0,18.0,30.01,SSW,205,2.0,2.0,33,0.00,,,0.00,,2013-01-03 09:12:00,
2013-01-03 01:22:00,44.0,19.0,30.01,SSW,205,1.0,2.0,36,0.00,,,0.00,,2013-01-03 09:22:00,
2013-01-03 01:32:00,44.0,19.0,30.01,SSW,205,1.0,2.0,36,0.00,,,0.00,,2013-01-03 09:32:00,
2013-01-03 01:43:00,44.0,19.0,30.01,SSW,205,1.0,2.0,36,0.00,,,0.00,,2013-01-03 09:43:00,
2013-01-03 01:52:00,43.0,22.0,30.01,SSW,205,1.0,2.0,42,0.00,,,0.00,,2013-01-03 09:52:00,
2013-01-03 02:01:00,43.0,22.0,30.01,SSW,205,1.0,2.0,42,0.00,,,0.00,,2013-01-03 10:01:00,
2013-01-03 02:12:00,43.0,22.0,30.01,SSW,205,1.0,2.0,42,0.00,,,0.00,,2013-01-03 10:12:00,
2013-01-03 02:22:00,43.0,20.0,30.01,SSW,205,1.0,2.0,40,0.00,,,0.00,,2013-01-03 10:22:00,
2013-01-03 02:32:00,43.0,20.0,30.01,SSW,205,1.0,2.0,40,0.00,,,0.00,,2013-01-03 10:32:00,
2013-01-03 02:43:00,43.0,20.0,30.01,SSW,205,1.0,2.0,40,0.00,,,0.00,,2013-01-03 10:43:00,
2013-01-03 02:52:00,42.0,19.0,30.01,SSW,205,1.0,3.0,40,0.00,,,0.00,,2013-01-03 10:52:00,
2013-01-03 03:01:00,42.0,19.0,30.01,SSW,205,1.0,3.0,40,0.00,,,0.00,,2013-01-03 11:01:00,
2013-01-03 03:11:00,42.0,19.0,30.01,SSW,205,1.0,3.0,40,0.00,,,0.00,,2013-01-03 11:11:00,
2013-01-03 03:22:00,42.0,19.0,30.01,SSW,205,1.0,2.0,39,0.00,,,0.00,,2013-01-03 11:22:00,
2013-01-03 03:32:00,42.0,19.0,30.01,SSW,205,1.0,2.0,39,0.00,,,0.00,,2013-01-03 11:32:00,
2013-01-03 03:43:00,42.0,19.0,30.01,SSW,205,1.0,2.0,39,0.00,,,0.00,,2013-01-03 11:43:00,
2013-01-03 03:53:00,42.0,20.0,30.01,SSW,205,0.0,2.0,41,0.00,,,0.00,,2013-01-03 11:53:00,
2013-01-03 04:02:00,42.0,20.0,30.01,SSW,205,0.0,2.0,41,0.00,,,0.00,,2013-01-03 12:02:00,
2013-01-03 04:12:00,42.0,20.0,30.01,SSW,205,0.0,2.0,41,0.00,,,0.00,,2013-01-03 12:12:00,
2013-01-03 04:22:00,42.0,21.0,30.01,SSW,205,0.0,2.0,42,0.00,,,0.00,,2013-01-03 12:22:00,
2013-01-03 04:32:00,42.0,21.0,30.01,SSW,205,0.0,2.0,42,0.00,,,0.00,,2013-01-03 12:32:00,
2013-01-03 04:43:00,42.0,21.0,30.01,SSW,205,0.0,2.0,42,0.00,,,0.00,,2013-01-03 12:43:00,
2013-01-03 04:53:00,43.0,17.0,30.01,NNE,13,1.0,6.0,35,0.00,,,0.00,,2013-01-03 12:53:00,
2013-01-03 05:02:00,43.0,17.0,30.01,NNE,13,1.0,6.0,35,0.00,,,0.00,,2013-01-03 13:02:00,
2013-01-03 05:12:00,43.0,17.0,30.01,NNE,13,1.0,6.0,35,0.00,,,0.00,,2013-01-03 13:12:00,
2013-01-03 05:22:00,48.0,13.0,30.01,NNW,347,1.0,3.0,24,0.00,,,0.00,,2013-01-03 13:22:00,
2013-01-03 05:32:00,48.0,13.0,30.01,NNW,347,1.0,3.0,24,0.00,,,0.00,,2013-01-03 13:32:00,
2013-01-03 05:42:00,48.0,13.0,30.01,NNW,347,1.0,3.0,24,0.00,,,0.00,,2013-01-03 13:42:00,
2013-01-03 05:52:00,51.0,12.0,30.01,NW,318,1.0,2.0,21,0.00,,,0.00,,2013-01-03 13:52:00,
2013-01-03 06:02:00,51.0,12.0,30.01,NW,318,1.0,2.0,21,0.00,,,0.00,,2013-01-03 14:02:00,
2013-01-03 06:12:00,51.0,12.0,30.01,NW,318,1.0,2.0,21,0.00,,,0.00,,2013-01-03 14:12:00,
2013-01-03 06:22:00,52.0,11.0,30.03,WNW,291,3.0,6.0,19,0.00,,,0.00,,2013-01-03 14:22:00,
2013-01-03 06:32:00,52.0,11.0,30.03,WNW,291,3.0,6.0,19,0.00,,,0.00,,2013-01-03 14:32:00,
2013-01-03 06:43:00,52.0,11.0,30.03,WNW,291,3.0,6.0,19,0.00,,,0.00,,2013-01-03 14:43:00,
2013-01-03 06:53:00,53.0,12.0,30.03,NNE,23,3.0,6.0,19,0.00,,,0.00,,2013-01-03 14:53:00,
2013-01-03 07:02:00,53.0,12.0,30.03,NNE,23,3.0,6.0,19,0.00,,,0.00,,2013-01-03 15:02:00,
2013-01-03 07:12:00,53.0,11.0,30.03,NNE,28,4.0,10.0,18,0.00,,,0.00,,2013-01-03 15:12:00,
2013-01-03 07:22:00,53.0,11.0,30.03,NNE,28,4.0,10.0,18,0.00,,,0.00,,2013-01-03 15:22:00,
2013-01-03 07:32:00,53.0,11.0,30.03,NNE,28,4.0,10.0,18,0.00,,,0.00,,2013-01-03 15:32:00,
2013-01-03 07:43:00,53.0,11.0,30.03,NNE,28,4.0,10.0,18,0.00,,,0.00,,2013-01-03 15:43:00,
2013-01-03 07:53:00,54.0,10.0,30.05,WNW,284,4.0,8.0,17,0.00,,,0.00,,2013-01-03 15:53:00,
2013-01-03 08:02:00,54.0,10.0,30.05,WNW,284,4.0,8.0,17,0.00,,,0.00,,2013-01-03 16:02:00,
2013-01-03 08:12:00,54.0,10.0,30.05,WNW,284,4.0,8.0,17,0.00,,,0.00,,2013-01-03 16:12:00,
2013-01-03 08:22:00,55.0,11.0,30.06,North,354,1.0,10.0,17,0.00,,,0.00,,2013-01-03 16:22:00,
2013-01-03 08:32:00,55.0,11.0,30.06,North,354,1.0,10.0,17,0.00,,,0.00,,2013-01-03 16:32:00,
2013-01-03 08:43:00,55.0,11.0,30.06,North,354,1.0,10.0,17,0.00,,,0.00,,2013-01-03 16:43:00,
2013-01-03 08:53:00,57.0,10.0,30.07,WNW,294,3.0,11.0,15,0.00,,,0.00,,2013-01-03 16:53:00,
2013-01-03 09:02:00,57.0,10.0,30.07,WNW,294,3.0,11.0,15,0.00,,,0.00,,2013-01-03 17:02:00,
2013-01-03 09:12:00,57.0,10.0,30.07,WNW,294,3.0,11.0,15,0.00,,,0.00,,2013-01-03 17:12:00,
2013-01-03 09:22:00,59.0,11.0,30.08,NE,45,3.0,8.0,15,0.00,,,0.00,,2013-01-03 17:22:00,
2013-01-03 09:32:00,59.0,11.0,30.08,NE,45,3.0,8.0,15,0.00,,,0.00,,2013-01-03 17:32:00,
2013-01-03 09:43:00,59.0,11.0,30.08,NE,45,3.0,8.0,15,0.00,,,0.00,,2013-01-03 17:43:00,
2013-01-03 09:53:00,62.0,12.0,30.10,North,359,3.0,7.0,14,0.00,,,0.00,,2013-01-03 17:53:00,
2013-01-03 10:02:00,62.0,12.0,30.10,North,359,3.0,7.0,14,0.00,,,0.00,,2013-01-03 18:02:00,
2013-01-03 10:12:00,62.0,12.0,30.10,North,359,3.0,7.0,14,0.00,,,0.00,,2013-01-03 18:12:00,
2013-01-03 10:22:00,63.0,11.0,30.09,North,350,3.0,17.0,13,0.00,,,0.00,,2013-01-03 18:22:00,
2013-01-03 10:32:00,63.0,11.0,30.09,North,350,3.0,17.0,13,0.00,,,0.00,,2013-01-03 18:32:00,
2013-01-03 10:43:00,63.0,11.0,30.09,North,350,3.0,17.0,13,0.00,,,0.00,,2013-01-03 18:43:00,
2013-01-03 10:53:00,65.0,9.0,30.09,North,356,4.0,16.0,11,0.00,,,0.00,,2013-01-03 18:53:00,
2013-01-03 11:02:00,65.0,9.0,30.09,North,356,4.0,16.0,11,0.00,,,0.00,,2013-01-03 19:02:00,
2013-01-03 11:12:00,65.0,9.0,30.09,North,356,4.0,16.0,11,0.00,,,0.00,,2013-01-03 19:12:00,
2013-01-03 11:56:00,68.0,9.0,30.07,North,360,4.0,17.0,10,0.00,,,0.00,,2013-01-03 19:56:00,
2013-01-03 12:02:00,68.0,9.0,30.07,North,360,4.0,17.0,10,0.00,,,0.00,,2013-01-03 20:02:00,
2013-01-03 12:12:00,68.0,9.0,30.07,North,360,4.0,17.0,10,0.00,,,0.00,,2013-01-03 20:12:00,
2013-01-03 12:22:00,69.0,10.0,30.05,North,1,2.0,11.0,10,0.00,,,0.00,,2013-01-03 20:22:00,
2013-01-03 12:32:00,69.0,10.0,30.05,North,1,2.0,11.0,10,0.00,,,0.00,,2013-01-03 20:32:00,
2013-01-03 12:43:00,69.0,10.0,30.05,North,1,2.0,11.0,10,0.00,,,0.00,,2013-01-03 20:43:00,
2013-01-03 12:53:00,70.0,9.0,30.05,NE,40,3.0,11.0,9,0.00,,,0.00,,2013-01-03 20:53:00,
2013-01-03 13:02:00,70.0,9.0,30.05,NE,40,3.0,11.0,9,0.00,,,0.00,,2013-01-03 21:02:00,
2013-01-03 13:12:00,70.0,9.0,30.05,NE,40,3.0,11.0,9,0.00,,,0.00,,2013-01-03 21:12:00,
2013-01-03 13:22:00,71.0,9.0,30.04,NW,313,3.0,17.0,9,0.00,,,0.00,,2013-01-03 21:22:00,
2013-01-03 13:53:00,70.0,9.0,30.04,NE,52,3.0,16.0,9,0.00,,,0.00,,2013-01-03 21:53:00,
2013-01-03 14:02:00,70.0,9.0,30.04,NE,52,3.0,16.0,9,0.00,,,0.00,,2013-01-03 22:02:00,
2013-01-03 14:12:00,70.0,9.0,30.04,NE,52,3.0,16.0,9,0.00,,,0.00,,2013-01-03 22:12:00,
2013-01-03 14:22:00,70.0,9.0,30.03,NW,311,5.0,16.0,9,0.00,,,0.00,,2013-01-03 22:22:00,
2013-01-03 14:32:00,70.0,9.0,30.03,NW,311,5.0,16.0,9,0.00,,,0.00,,2013-01-03 22:32:00,
2013-01-03 14:43:00,70.0,9.0,30.03,NW,311,5.0,16.0,9,0.00,,,0.00,,2013-01-03 22:43:00,
2013-01-03 14:52:00,69.0,8.0,30.03,North,359,6.0,14.0,9,0.00,,,0.00,,2013-01-03 22:52:00,
2013-01-03 15:02:00,69.0,8.0,30.03,North,359,6.0,14.0,9,0.00,,,0.00,,2013-01-03 23:02:00,
2013-01-03 15:12:00,69.0,8.0,30.03,North,359,6.0,14.0,9,0.00,,,0.00,,2013-01-03 23:12:00,
2013-01-03 15:22:00,69.0,8.0,30.04,NNW,347,3.0,13.0,9,0.00,,,0.00,,2013-01-03 23:22:00,
2013-01-03 15:32:00,69.0,8.0,30.04,NNW,347,3.0,13.0,9,0.00,,,0.00,,2013-01-03 23:32:00,
2013-01-03 15:43:00,69.0,8.0,30.04,NNW,347,3.0,13.0,9,0.00,,,0.00,,2013-01-03 23:43:00,
2013-01-03 15:53:00,69.0,8.0,30.04,NNW,347,3.0,13.0,9,0.00,,,0.00,,2013-01-03 23:53:00,
2013-01-03 16:02:00,69.0,8.0,30.04,NNW,347,3.0,13.0,9,0.00,,,0.00,,2013-01-04 00:02:00,
2013-01-03 16:23:00,65.0,5.0,30.05,North,357,3.0,12.0,9,0.00,,,0.00,,2013-01-04 00:23:00,
2013-01-03 16:33:00,65.0,5.0,30.05,North,357,3.0,12.0,9,0.00,,,0.00,,2013-01-04 00:33:00,
2013-01-03 16:42:00,65.0,5.0,30.05,North,357,3.0,12.0,9,0.00,,,0.00,,2013-01-04 00:42:00,
2013-01-03 16:52:00,63.0,3.0,30.05,NW,326,3.0,7.0,9,0.00,,,0.00,,2013-01-04 00:52:00,
2013-01-03 17:02:00,63.0,3.0,30.05,NW,326,3.0,7.0,9,0.00,,,0.00,,2013-01-04 01:02:00,
2013-01-03 17:12:00,63.0,3.0,30.05,NW,326,3.0,7.0,9,0.00,,,0.00,,2013-01-04 01:12:00,
2013-01-03 17:22:00,62.0,3.0,30.06,NNW,340,2.0,11.0,9,0.00,,,0.00,,2013-01-04 01:22:00,
2013-01-03 17:32:00,62.0,3.0,30.06,NNW,340,2.0,11.0,9,0.00,,,0.00,,2013-01-04 01:32:00,
2013-01-03 17:42:00,62.0,3.0,30.06,NNW,340,2.0,11.0,9,0.00,,,0.00,,2013-01-04 01:42:00,
2013-01-03 17:52:00,61.0,4.0,30.06,NW,323,3.0,7.0,10,0.00,,,0.00,,2013-01-04 01:52:00,
2013-01-03 18:01:00,61.0,4.0,30.06,NW,323,3.0,7.0,10,0.00,,,0.00,,2013-01-04 02:01:00,
2013-01-03 18:12:00,61.0,4.0,30.06,NW,323,3.0,7.0,10,0.00,,,0.00,,2013-01-04 02:12:00,
2013-01-03 18:22:00,60.0,3.0,30.07,NW,320,1.0,8.0,10,0.00,,,0.00,,2013-01-04 02:22:00,
2013-01-03 18:32:00,60.0,3.0,30.07,NW,320,1.0,8.0,10,0.00,,,0.00,,2013-01-04 02:32:00,
2013-01-03 18:42:00,60.0,3.0,30.07,NW,320,1.0,8.0,10,0.00,,,0.00,,2013-01-04 02:42:00,
2013-01-03 18:53:00,59.0,5.0,30.08,WNW,292,0.0,2.0,11,0.00,,,0.00,,2013-01-04 02:53:00,
2013-01-03 19:02:00,59.0,5.0,30.08,WNW,292,0.0,2.0,11,0.00,,,0.00,,2013-01-04 03:02:00,
2013-01-03 19:12:00,59.0,5.0,30.08,WNW,292,0.0,2.0,11,0.00,,,0.00,,2013-01-04 03:12:00,
2013-01-03 19:22:00,58.0,4.0,30.09,WNW,287,0.0,2.0,11,0.00,,,0.00,,2013-01-04 03:22:00,
2013-01-03 19:32:00,58.0,4.0,30.09,WNW,287,0.0,2.0,11,0.00,,,0.00,,2013-01-04 03:32:00,
2013-01-03 19:43:00,58.0,4.0,30.09,WNW,287,0.0,2.0,11,0.00,,,0.00,,2013-01-04 03:43:00,
2013-01-03 19:52:00,57.0,5.0,30.09,NE,35,0.0,7.0,12,0.00,,,0.00,,2013-01-04 03:52:00,
2013-01-03 20:02:00,57.0,5.0,30.09,NE,35,0.0,7.0,12,0.00,,,0.00,,2013-01-04 04:02:00,
2013-01-03 20:12:00,57.0,5.0,30.09,NE,35,0.0,7.0,12,0.00,,,0.00,,2013-01-04 04:12:00,
2013-01-03 20:22:00,57.0,3.0,30.10,NNW,328,1.0,4.0,11,0.00,,,0.00,,2013-01-04 04:22:00,
2013-01-03 20:32:00,57.0,3.0,30.10,NNW,328,1.0,4.0,11,0.00,,,0.00,,2013-01-04 04:32:00,
2013-01-03 20:42:00,57.0,3.0,30.10,NNW,328,1.0,4.0,11,0.00,,,0.00,,2013-01-04 04:42:00,
2013-01-03 20:52:00,56.0,4.0,30.11,WNW,291,1.0,3.0,12,0.00,,,0.00,,2013-01-04 04:52:00,
2013-01-03 21:03:00,56.0,4.0,30.11,WNW,291,1.0,3.0,12,0.00,,,0.00,,2013-01-04 05:03:00,
2013-01-03 21:12:00,56.0,4.0,30.11,WNW,291,1.0,3.0,12,0.00,,,0.00,,2013-01-04 05:12:00,
2013-01-03 21:22:00,55.0,7.0,30.11,SW,220,0.0,4.0,14,0.00,,,0.00,,2013-01-04 05:22:00,
2013-01-03 21:32:00,55.0,7.0,30.11,SW,220,0.0,4.0,14,0.00,,,0.00,,2013-01-04 05:32:00,
2013-01-03 21:42:00,55.0,7.0,30.11,SW,220,0.0,4.0,14,0.00,,,0.00,,2013-01-04 05:42:00,
2013-01-03 21:52:00,53.0,8.0,30.12,SW,219,1.0,5.0,16,0.00,,,0.00,,2013-01-04 05:52:00,
2013-01-03 22:02:00,53.0,8.0,30.12,SW,219,1.0,5.0,16,0.00,,,0.00,,2013-01-04 06:02:00,
2013-01-03 22:12:00,53.0,8.0,30.12,SW,219,1.0,5.0,16,0.00,,,0.00,,2013-01-04 06:12:00,
2013-01-03 22:22:00,53.0,7.0,30.12,SW,219,1.0,2.0,15,0.00,,,0.00,,2013-01-04 06:22:00,
2013-01-03 22:32:00,53.0,7.0,30.12,SW,219,1.0,2.0,15,0.00,,,0.00,,2013-01-04 06:32:00,
2013-01-03 22:42:00,53.0,7.0,30.12,SW,219,1.0,2.0,15,0.00,,,0.00,,2013-01-04 06:42:00,
2013-01-03 22:52:00,52.0,10.0,30.13,NW,312,0.0,3.0,18,0.00,,,0.00,,2013-01-04 06:52:00,
2013-01-03 23:01:00,52.0,10.0,30.13,NW,312,0.0,3.0,18,0.00,,,0.00,,2013-01-04 07:01:00,
2013-01-03 23:12:00,52.0,10.0,30.13,NW,312,0.0,3.0,18,0.00,,,0.00,,2013-01-04 07:12:00,
2013-01-03 23:22:00,50.0,12.0,30.13,South,185,0.0,3.0,21,0.00,,,0.00,,2013-01-04 07:22:00,
2013-01-03 23:32:00,50.0,12.0,30.13,South,185,0.0,3.0,21,0.00,,,0.00,,2013-01-04 07:32:00,
2013-01-03 23:42:00,50.0,12.0,30.13,South,185,0.0,3.0,21,0.00,,,0.00,,2013-01-04 07:42:00,
2013-01-03 23:52:00,47.0,11.0,30.13,SSE,167,2.0,6.0,23,0.00,,,0.00,,2013-01-04 07:52:00,